Data for 01/16/2014

Time Sea-Level Adjusted Pressure Absolute Pressure Temperature Relative Humidity Dew Point   
(mb) (inHg) (mb) (inHg) (C) (F) (%) (C) (F)
00:05 1027 30.33 856 25.28 3.5 38.2 38 -9.6 14.8
00:10 1027 30.33 856 25.28 3.4 38.1 38 -9.6 14.8
00:15 1027 30.33 856 25.28 3.4 38.1 38 -9.6 14.7
00:20 1027 30.33 856 25.28 3.4 38.1 38 -9.6 14.8
00:25 1027 30.33 856 25.28 3.5 38.2 38 -9.6 14.7
00:30 1027 30.33 856 25.28 3.5 38.3 37 -9.8 14.4
00:35 1027 30.33 856 25.28 3.5 38.3 37 -9.9 14.3
00:40 1027 30.33 856 25.28 3.6 38.5 36 -10 14
00:45 1027 30.33 856 25.28 3.7 38.7 36 -9.9 14.1
00:50 1027 30.33 856 25.28 3.7 38.6 36 -9.9 14.1
00:55 1027 30.33 856 25.28 3.5 38.4 37 -9.9 14.2
01:00 1027 30.33 856 25.28 3.5 38.4 37 -9.8 14.3
01:05 1027 30.33 856 25.28 3.5 38.4 36 -10.2 13.6
01:10 1027 30.33 856 25.28 3.4 38.1 42 -8.2 17.2
01:15 1027 30.33 856 25.28 2.2 36 45 -8.6 16.5
01:20 1027 30.33 856 25.28 2 35.5 44 -9.2 15.5
01:25 1027 30.33 856 25.28 1.7 35.1 45 -8.8 16.1
01:30 1027 30.33 856 25.28 1.6 34.9 45 -9 15.8
01:35 1027 30.33 856 25.28 2 35.6 43 -9.3 15.3
01:40 1027 30.33 856 25.28 1.9 35.3 46 -8.6 16.5
01:45 1027 30.33 856 25.28 1.8 35.3 42 -9.7 14.5
01:50 1027 30.33 856 25.28 2.6 36.6 41 -9.3 15.3
01:55 1027 30.33 856 25.28 2.5 36.4 41 -9.5 15
02:00 1027 30.33 856 25.28 2.6 36.8 40 -9.5 14.8
02:05 1027 30.33 856 25.28 2.6 36.6 42 -9.1 15.6
02:10 1027 30.33 856 25.28 2.3 36.2 43 -9.1 15.7
02:15 1027 30.33 856 25.28 2.1 35.8 43 -9.3 15.2
02:20 1027 30.33 856 25.28 2.2 35.9 42 -9.3 15.2
02:25 1027 30.33 856 25.28 2.2 36 42 -9.5 15
02:30 1027 30.33 856 25.28 2.2 35.9 41 -9.8 14.4
02:35 1027 30.33 857 25.31 2.5 36.4 40 -9.9 14.2
02:40 1027 30.33 857 25.31 2.6 36.7 42 -9.1 15.6
02:45 1027 30.33 857 25.31 2.4 36.4 41 -9.4 15.1
02:50 1027 30.33 857 25.31 2.3 36.2 42 -9.3 15.2
02:55 1027 30.33 857 25.31 2.3 36.1 42 -9.4 15.1
03:00 1027 30.33 857 25.31 2 35.6 43 -9.2 15.4
03:05 1027 30.33 857 25.31 1.8 35.2 44 -9.2 15.5
03:10 1027 30.33 857 25.31 1.5 34.6 45 -9.1 15.6
03:15 1027 30.33 857 25.31 1.4 34.5 46 -9 15.7
03:20 1027 30.33 857 25.31 1.3 34.4 47 -8.9 15.9
03:25 1027 30.33 857 25.31 1.2 34.2 47 -9 15.8
03:30 1027 30.33 857 25.31 1.1 34 47 -9.1 15.6
03:35 1027 30.33 857 25.31 1.3 34.3 46 -9 15.7
03:40 1028 30.36 857 25.31 1.4 34.6 46 -9 15.8
03:45 1028 30.36 857 25.31 1.3 34.4 47 -8.8 16.2
03:50 1028 30.36 857 25.31 1.2 34.1 47 -8.8 16.1
03:55 1027 30.33 857 25.31 1.2 34.1 48 -8.7 16.3
04:00 1027 30.33 857 25.31 1 33.8 50 -8.3 17
04:05 1027 30.33 857 25.31 0.6 33.1 52 -8.1 17.4
04:10 1027 30.33 857 25.31 0.3 32.6 52 -8.4 17
04:15 1027 30.33 857 25.31 0.3 32.5 51 -8.8 16.2
04:20 1027 30.33 857 25.31 0.8 33.4 50 -8.5 16.7
04:25 1027 30.33 857 25.31 0.8 33.5 51 -8.3 17
04:30 1027 30.33 857 25.31 0.8 33.4 50 -8.4 16.8
04:35 1027 30.33 856 25.28 1.1 34 48 -8.9 16.1
04:40 1027 30.33 857 25.31 1.3 34.3 47 -8.8 16.2
04:45 1027 30.33 856 25.28 1.2 34.2 48 -8.7 16.4
04:50 1027 30.33 856 25.28 1 33.9 50 -8.3 17
04:55 1027 30.33 856 25.28 0.8 33.4 49 -8.7 16.4
05:00 1027 30.33 857 25.31 1 33.8 48 -8.9 16
05:05 1027 30.33 856 25.28 1.3 34.3 46 -9.2 15.4
05:10 1027 30.33 856 25.28 1.5 34.7 46 -8.8 16.1
05:15 1027 30.33 856 25.28 1.5 34.6 45 -9.2 15.4
05:20 1027 30.33 856 25.28 1.5 34.6 46 -8.9 16
05:25 1027 30.33 856 25.28 1.3 34.3 47 -8.8 16.1
05:30 1027 30.33 856 25.28 1.2 34.2 46 -9.1 15.7
05:35 1027 30.33 856 25.28 1.2 34.2 47 -8.9 16.1
05:40 1027 30.33 856 25.28 1.2 34.2 48 -8.6 16.5
05:45 1027 30.33 856 25.28 1 33.7 47 -9 15.8
05:50 1027 30.33 856 25.28 0.9 33.7 48 -8.8 16.1
05:55 1027 30.33 856 25.28 1.1 33.9 46 -9.2 15.4
06:00 1027 30.33 856 25.28 1.4 34.5 44 -9.5 14.9
06:05 1027 30.33 856 25.28 1.6 34.9 44 -9.5 15
06:10 1027 30.33 856 25.28 1.9 35.3 43 -9.6 14.8
06:15 1027 30.33 856 25.28 2 35.6 41 -9.8 14.3
06:20 1027 30.33 857 25.31 2.2 35.9 41 -9.9 14.2
06:25 1027 30.33 857 25.31 2.1 35.8 42 -9.5 14.9
06:30 1027 30.33 857 25.31 2 35.6 42 -9.6 14.6
06:35 1027 30.33 857 25.31 2 35.6 42 -9.5 14.9
06:40 1027 30.33 857 25.31 1.7 35.1 43 -9.5 14.8
06:45 1027 30.33 857 25.31 1.6 34.9 44 -9.5 15
06:50 1027 30.33 857 25.31 1.4 34.6 44 -9.6 14.7
06:55 1027 30.33 856 25.28 1.5 34.7 43 -9.7 14.5
07:00 1027 30.33 856 25.28 1.6 34.8 43 -9.7 14.6
07:05 1027 30.33 856 25.28 1.5 34.7 43 -9.7 14.5
07:10 1027 30.33 856 25.28 1.5 34.7 42 -10 14
07:15 1027 30.33 856 25.28 1.6 35 43 -9.5 14.8
07:20 1027 30.33 856 25.28 0.9 33.5 46 -9.5 15
07:25 1027 30.33 856 25.28 0.7 33.3 45 -10 14.1
07:30 1027 30.33 856 25.28 0.8 33.5 45 -9.9 14.1
07:35 1027 30.33 856 25.28 0.9 33.7 44 -9.9 14.2
07:40 1027 30.33 856 25.28 1.1 33.9 44 -10 14.1
07:45 1027 30.33 856 25.28 1.2 34.1 43 -10 14
07:50 1027 30.33 856 25.28 1.3 34.4 43 -10.1 13.9
07:55 1027 30.33 856 25.28 1.5 34.6 43 -9.9 14.3
08:00 1027 30.33 856 25.28 1 33.8 45 -9.6 14.7
08:05 1027 30.33 856 25.28 0.6 33.1 45 -9.9 14.2
08:10 1027 30.33 856 25.28 0.5 32.9 44 -10.4 13.3
08:15 1027 30.33 857 25.31 1 33.8 42 -10.4 13.3
08:20 1027 30.33 857 25.31 0.8 33.5 44 -10.1 13.8
08:25 1027 30.33 857 25.31 0.2 32.3 45 -10.3 13.5
08:30 1027 30.33 857 25.31 0.2 32.3 44 -10.6 12.9
08:35 1027 30.33 857 25.31 0.4 32.7 44 -10.5 13.2
08:40 1027 30.33 857 25.31 0.4 32.8 44 -10.6 12.9
08:45 1027 30.33 857 25.31 0.5 32.9 44 -10.5 13
08:50 1027 30.33 857 25.31 0.5 33 43 -10.6 13
08:55 1028 30.36 857 25.31 0.7 33.2 43 -10.7 12.8
09:00 1028 30.36 857 25.31 0.9 33.6 42 -10.7 12.8
09:05 1028 30.36 857 25.31 1 33.8 42 -10.4 13.2
09:10 1028 30.36 857 25.31 0.9 33.7 42 -10.6 13
09:15 1028 30.36 857 25.31 1 33.8 43 -10.4 13.3
09:20 1028 30.36 857 25.31 0.9 33.6 42 -10.5 13.1
09:25 1028 30.36 857 25.31 1.1 34 42 -10.6 13
09:30 1028 30.36 857 25.31 1.6 34.8 40 -10.5 13.1
09:35 1028 30.36 857 25.31 1.9 35.4 40 -10.4 13.3
09:40 1028 30.36 857 25.31 1.9 35.4 40 -10.4 13.3
09:45 1028 30.36 857 25.31 2.3 36.1 38 -10.6 12.9
09:50 1028 30.36 857 25.31 2.5 36.4 38 -10.4 13.3
09:55 1028 30.36 857 25.31 2.4 36.3 38 -10.6 13
10:00 1028 30.36 857 25.31 2.7 36.9 38 -10.4 13.3
10:05 1028 30.36 857 25.31 3 37.4 37 -10.4 13.3
10:10 1028 30.36 857 25.31 3.3 37.9 36 -10.6 12.9
10:15 1028 30.36 858 25.34 3.4 38.1 36 -10.4 13.2
10:20 1028 30.36 858 25.34 3.2 37.7 36 -10.4 13.2
10:25 1028 30.36 858 25.34 2.9 37.2 37 -10.5 13
10:30 1028 30.36 858 25.34 2.9 37.2 37 -10.5 13.1
10:35 1028 30.36 858 25.34 3.1 37.5 36 -10.7 12.7
10:40 1028 30.36 858 25.34 3.4 38.1 35 -10.7 12.8
10:45 1029 30.39 858 25.34 3.9 39 34 -10.7 12.8
10:50 1029 30.39 858 25.34 4.3 39.8 33 -10.6 13
10:55 1029 30.39 858 25.34 4.7 40.5 32 -10.5 13
11:00 1029 30.39 858 25.34 5.1 41.1 32 -10.5 13.1
11:05 1029 30.39 858 25.34 5.2 41.3 32 -10.4 13.3
11:10 1029 30.39 858 25.34 5 41 31 -10.6 12.8
11:15 1029 30.39 858 25.34 4.9 40.8 32 -10.3 13.4
11:20 1029 30.39 858 25.34 5 41 32 -10.3 13.5
11:25 1029 30.39 858 25.34 5.2 41.3 32 -10.1 13.9
11:30 1029 30.39 858 25.34 5.2 41.4 32 -10 14
11:35 1029 30.39 858 25.34 5.7 42.2 31 -10.1 13.8
11:40 1029 30.39 858 25.34 6 42.8 31 -9.9 14.1
11:45 1029 30.39 858 25.34 6.1 43 31 -10 14
11:50 1029 30.39 858 25.34 6.1 42.9 30 -10.1 13.9
11:55 1029 30.39 858 25.34 6.1 43 31 -9.9 14.1
12:00 1029 30.39 858 25.34 5.7 42.3 31 -10.1 13.8
12:05 1029 30.39 858 25.34 5.3 41.6 32 -10.2 13.7
12:10 1029 30.39 858 25.34 5.2 41.3 32 -10 14
12:15 1029 30.39 858 25.34 5.1 41.2 32 -10.2 13.7
12:20 1029 30.39 858 25.34 5.1 41.2 33 -9.9 14.1
12:25 1029 30.39 858 25.34 5.5 41.9 32 -10 13.9
12:30 1029 30.39 858 25.34 5.7 42.2 32 -9.6 14.7
12:35 1029 30.39 858 25.34 5.9 42.6 32 -9.5 14.9
12:40 1028 30.36 858 25.34 6.2 43.1 32 -9.4 15.1
12:45 1028 30.36 858 25.34 6.5 43.7 32 -9.1 15.6
12:50 1028 30.36 858 25.34 6.7 44.1 31 -9.2 15.5
12:55 1028 30.36 858 25.34 6.9 44.4 32 -8.9 16.1
13:00 1028 30.36 858 25.34 6.9 44.4 31 -9.1 15.6
13:05 1028 30.36 857 25.31 7.1 44.7 31 -8.8 16.1
13:10 1028 30.36 857 25.31 7.2 45 31 -8.6 16.5
13:15 1028 30.36 857 25.31 7.2 44.9 31 -8.8 16.1
13:20 1028 30.36 857 25.31 7.4 45.4 30 -8.9 16.1
13:25 1028 30.36 857 25.31 7.1 44.8 32 -8.3 17.1
13:30 1028 30.36 857 25.31 7.1 44.8 32 -8.4 17
13:35 1028 30.36 857 25.31 7.3 45.1 32 -8.4 16.8
13:40 1028 30.36 857 25.31 7.4 45.3 32 -8.3 17
13:45 1028 30.36 857 25.31 7.2 44.9 31 -9 15.8
13:50 1028 30.36 857 25.31 7.7 45.8 30 -8.8 16.2
13:55 1028 30.36 857 25.31 8.1 46.6 29 -8.8 16.1
14:00 1028 30.36 857 25.31 8 46.3 30 -8.5 16.7
14:05 1028 30.36 857 25.31 8.2 46.7 29 -8.7 16.3
14:10 1028 30.36 857 25.31 8.2 46.7 30 -8.5 16.7
14:15 1028 30.36 857 25.31 8 46.5 29 -8.8 16.2
14:20 1028 30.36 857 25.31 8.1 46.6 29 -8.7 16.4
14:25 1028 30.36 857 25.31 8.1 46.7 30 -8.5 16.7
14:30 1028 30.36 857 25.31 7.9 46.3 30 -8.4 16.9
14:35 1028 30.36 857 25.31 8.1 46.6 29 -8.9 16.1
14:40 1028 30.36 857 25.31 8.2 46.7 29 -8.7 16.4
14:45 1027 30.33 857 25.31 8.5 47.3 28 -9 15.8
14:50 1027 30.33 857 25.31 8.8 47.8 29 -8.5 16.7
14:55 1027 30.33 857 25.31 8.6 47.5 28 -8.9 15.9
15:00 1027 30.33 857 25.31 8.5 47.3 28 -9.1 15.6
15:05 1027 30.33 857 25.31 8.6 47.5 28 -8.9 16
15:10 1027 30.33 856 25.28 8.8 47.8 27 -9.3 15.3
15:15 1027 30.33 856 25.28 8.6 47.5 28 -8.9 15.9
15:20 1027 30.33 856 25.28 8.8 47.8 27 -9.2 15.4
15:25 1027 30.33 856 25.28 8.9 47.9 28 -8.7 16.3
15:30 1027 30.33 856 25.28 8.9 47.9 27 -9 15.9
15:35 1027 30.33 856 25.28 9.2 48.5 28 -8.4 16.9
15:40 1027 30.33 856 25.28 9.2 48.6 28 -8.4 16.9
15:45 1027 30.33 856 25.28 8.7 47.6 29 -8.4 16.8
15:50 1027 30.33 856 25.28 8.3 47 30 -8.4 16.9
15:55 1027 30.33 856 25.28 8.3 47 29 -8.5 16.7
16:00 1027 30.33 856 25.28 8.2 46.8 29 -8.6 16.5
16:05 1027 30.33 856 25.28 7.4 45.3 31 -8.8 16.2
16:10 1027 30.33 856 25.28 7.8 46 29 -9 15.7
16:15 1027 30.33 856 25.28 8.3 47 28 -9 15.8
16:20 1027 30.33 856 25.28 8 46.4 30 -8.4 16.9
16:25 1027 30.33 856 25.28 7.7 45.9 30 -8.9 15.9
16:30 1027 30.33 856 25.28 7.6 45.7 30 -8.8 16.1
16:35 1027 30.33 856 25.28 7 44.6 31 -9 15.9
16:40 1027 30.33 856 25.28 6.3 43.3 31 -9.6 14.7
16:45 1027 30.33 856 25.28 6.4 43.5 32 -9.1 15.7
16:50 1027 30.33 856 25.28 7.2 45 30 -9.2 15.4
16:55 1027 30.33 856 25.28 7.7 45.9 29 -9.3 15.3
17:00 1027 30.33 856 25.28 7.5 45.6 30 -9.2 15.5
17:05 1027 30.33 856 25.28 6.9 44.4 32 -8.6 16.6
17:10 1027 30.33 856 25.28 7.1 44.8 31 -8.8 16.1
17:15 1027 30.33 856 25.28 7.3 45.1 30 -9.1 15.7
17:20 1027 30.33 856 25.28 6.9 44.4 31 -9.3 15.3
17:25 1027 30.33 856 25.28 7.2 44.9 30 -9.1 15.6
17:30 1027 30.33 856 25.28 7.2 44.9 32 -8.5 16.7
17:35 1027 30.33 856 25.28 6.9 44.4 34 -7.9 17.8
17:40 1027 30.33 856 25.28 6.3 43.3 35 -8 17.6
17:45 1027 30.33 856 25.28 6.2 43.1 34 -8.4 16.9
17:50 1027 30.33 856 25.28 6.2 43.2 36 -8 17.7
17:55 1027 30.33 856 25.28 6 42.8 36 -7.9 17.8
18:00 1027 30.33 856 25.28 5.9 42.6 38 -7.4 18.7
18:05 1027 30.33 856 25.28 5.6 42 39 -7.2 19.1
18:10 1027 30.33 856 25.28 5 41 37 -8.4 16.9
18:15 1027 30.33 856 25.28 4.8 40.6 39 -8.1 17.3
18:20 1027 30.33 856 25.28 4.7 40.5 39 -8 17.7
18:25 1027 30.33 856 25.28 4.7 40.4 41 -7.5 18.5
18:30 1027 30.33 856 25.28 4.5 40.1 42 -7.3 18.8
18:35 1027 30.33 856 25.28 4.4 39.9 40 -8 17.6
18:40 1027 30.33 856 25.28 4.3 39.7 41 -7.7 18.1
18:45 1027 30.33 856 25.28 4.2 39.6 44 -7.1 19.3
18:50 1027 30.33 856 25.28 4 39.2 44 -7.3 18.8
18:55 1027 30.33 856 25.28 3.8 38.8 45 -7.2 19
19:00 1027 30.33 856 25.28 3.6 38.5 43 -7.8 18
19:05 1027 30.33 856 25.28 3.8 38.8 44 -7.4 18.6
19:10 1027 30.33 856 25.28 3.8 38.8 41 -8.2 17.3
19:15 1027 30.33 856 25.28 3.8 38.9 41 -8.4 16.9
19:20 1027 30.33 856 25.28 3.8 38.9 41 -8.4 16.9
19:25 1027 30.33 856 25.28 3.7 38.6 40 -8.6 16.6
19:30 1027 30.33 856 25.28 3.5 38.3 41 -8.7 16.4
19:35 1027 30.33 856 25.28 3.2 37.8 40 -9 15.8
19:40 1027 30.33 856 25.28 2.8 37.1 42 -8.8 16.1
19:45 1027 30.33 856 25.28 2.5 36.4 44 -8.7 16.3
19:50 1027 30.33 856 25.28 2.3 36.2 42 -9.3 15.2
19:55 1027 30.33 856 25.28 2.2 35.9 44 -8.9 16
20:00 1027 30.33 856 25.28 2 35.5 45 -8.6 16.5
20:05 1027 30.33 856 25.28 1.9 35.5 45 -8.8 16.2
20:10 1027 30.33 856 25.28 1.8 35.2 47 -8.3 17
20:15 1027 30.33 856 25.28 1.7 35 46 -8.8 16.2
20:20 1027 30.33 856 25.28 1.7 35.1 44 -9.4 15.1
20:25 1027 30.33 856 25.28 2.2 35.9 41 -9.6 14.7
20:30 1027 30.33 856 25.28 2.4 36.3 40 -9.7 14.5
20:35 1027 30.33 856 25.28 2.6 36.7 40 -9.7 14.6
20:40 1027 30.33 856 25.28 2.6 36.6 42 -9.2 15.5
20:45 1027 30.33 856 25.28 2.3 36.1 42 -9.2 15.4
20:50 1027 30.33 856 25.28 2.1 35.8 43 -9.2 15.4
20:55 1027 30.33 856 25.28 2 35.7 43 -9.3 15.3
21:00 1027 30.33 856 25.28 1.8 35.3 44 -9.1 15.7
21:05 1027 30.33 856 25.28 1.6 34.9 44 -9.4 15.2
21:10 1027 30.33 856 25.28 1.5 34.7 45 -9.1 15.5
21:15 1027 30.33 856 25.28 1 33.9 47 -9 15.9
21:20 1027 30.33 856 25.28 0.8 33.4 48 -9.1 15.6
21:25 1027 30.33 856 25.28 0.7 33.3 48 -9.2 15.5
21:30 1027 30.33 856 25.28 0.8 33.5 45 -9.7 14.5
21:35 1027 30.33 856 25.28 1.2 34.2 45 -9.5 15
21:40 1027 30.33 856 25.28 1.5 34.6 44 -9.4 15
21:45 1027 30.33 856 25.28 1.6 35 45 -9.1 15.6
21:50 1027 30.33 856 25.28 1.6 34.9 44 -9.4 15
21:55 1027 30.33 856 25.28 1.5 34.6 44 -9.5 14.9
22:00 1027 30.33 856 25.28 1.3 34.4 45 -9.4 15.1
22:05 1027 30.33 856 25.28 1.2 34.1 43 -10 14
22:10 1027 30.33 856 25.28 1.3 34.3 45 -9.5 14.9
22:15 1027 30.33 856 25.28 1.1 34 46 -9.4 15.1
22:20 1027 30.33 856 25.28 0.7 33.3 46 -9.5 14.9
22:25 1027 30.33 856 25.28 0.4 32.6 47 -9.8 14.3
22:30 1027 30.33 856 25.28 0.4 32.6 47 -9.8 14.3
22:35 1027 30.33 856 25.28 0.7 33.2 44 -10.2 13.6
22:40 1027 30.33 856 25.28 0.9 33.6 45 -9.6 14.7
22:45 1027 30.33 856 25.28 0.4 32.7 47 -9.5 14.8
22:50 1027 30.33 856 25.28 0.2 32.3 46 -10.2 13.6
22:55 1026 30.3 856 25.28 0.5 33 44 -10.4 13.3
23:00 1026 30.3 856 25.28 0.7 33.3 44 -10.3 13.4
23:05 1026 30.3 856 25.28 0.7 33.2 44 -10.4 13.3
23:10 1026 30.3 856 25.28 0.6 33.1 44 -10.4 13.3
23:15 1026 30.3 856 25.28 0.9 33.6 42 -10.7 12.8
23:20 1026 30.3 855 25.25 1.6 34.9 38 -11.1 12
23:25 1026 30.3 855 25.25 2 35.7 37 -11 12.1
23:30 1026 30.3 855 25.25 2 35.5 38 -10.9 12.4
23:35 1026 30.3 855 25.25 1.7 35.1 39 -11 12.3
23:40 1026 30.3 855 25.25 1.8 35.2 38 -11 12.1
23:45 1026 30.3 855 25.25 1.6 34.8 40 -10.7 12.7
23:50 1026 30.3 855 25.25 1.2 34.1 40 -11.1 12.1
23:55 1026 30.3 855 25.25 1.7 35.1 37 -11.5 11.3
24:00 1026 30.3 855 25.25 2.1 35.8 35 -11.9 10.5